Terminal Aerodrome Forecast
Issued by NWS Memphis, TN

Home | Current Version | Previous Version | Text Only | Print | Product List | Glossary On
Versions: 1 2 3 4 5 6 7 8 9 10 11 12 13 14 15 16 17 18 19 20 21 22 23 24 25
380
FTUS44 KMEG 240527
TAFMKL
TAF
KMKL 240527Z 2406/2506 07005KT 5SM RA BR OVC015
      TEMPO 2406/2409 OVC004
     FM240900 16005KT 4SM BR OVC015
     FM241500 20009G15KT P6SM VCSH OVC009
     FM250100 19015G21KT 5SM SHRA BR VCTS OVC015CB=

USA.gov is the U.S. government's official web portal to all federal, state and local government web resources and services.